Wednesday, August 15, 2018, 7:08 AM EDT
Back to Local

KBID, Block Island, Block Island State Airport

Location: Block Island, RI, United States Lat: 41.167
Local Time: 7:08 AM EDT (11:08 GMT) Lon: -71.567
Time Zone: US/Eastern Elev: 108 ft

Show me the last for .
Show Decoded

2018-08-15 06:42 METAR KBID 151042Z AUTO 24004KT 10SM FEW008 SCT028 21/21 RMK AO2 LTG DSNT E AND
                 SE $ =
2018-08-15 06:13 METAR KBID 151013Z AUTO 25004KT 10SM FEW016 SCT023 BKN040 22/21 A2984 RMK AO2
                 LTG DSNT SE =
2018-08-15 05:56 METAR KBID 150956Z AUTO 25005KT 10SM BKN018 OVC023 22/21 A2984 RMK AO2 SLP106
                 T02170206 =
2018-08-15 05:38 METAR KBID 150938Z AUTO 24004KT 10SM FEW017 BKN025 22/21 A2983 RMK AO2 LTG DSNT
                 SE AND S =
2018-08-15 04:56 METAR KBID 150856Z AUTO 24006KT 10SM CLR 22/21 A2983 RMK AO2 LTG DSNT S SLP102
                 T02170206 58006 =
2018-08-15 03:56 METAR KBID 150756Z AUTO 22008KT 10SM CLR 22/21 A2983 RMK AO2 SLP104 T02170206 =
2018-08-15 02:56 METAR KBID 150656Z AUTO 23007KT 10SM CLR 22/21 A2984 RMK AO2 SLP108 T02170206 =
2018-08-15 01:56 METAR KBID 150556Z AUTO 23008KT 10SM CLR 22/21 A2985 RMK AO2 SLP109 T02220206
                 10239 20222 58003 =
2018-08-15 00:56 METAR KBID 150456Z AUTO 23009KT 10SM CLR 22/21 A2986 RMK AO2 SLP112 T02220206 =
2018-08-14 23:56 METAR KBID 150356Z AUTO 23008KT 10SM SCT120 22/21 A2986 RMK AO2 SLP114 T02220206
                 402780222 =
2018-08-14 22:56 METAR KBID 150256Z AUTO 24010KT 10SM CLR 23/19 A2986 RMK AO2 SLP112 T02280194
                 58002 =
2018-08-14 21:56 METAR KBID 150156Z AUTO 21009KT 10SM CLR 23/22 A2986 RMK AO2 SLP113 T02330217 =
2018-08-14 20:56 METAR KBID 150056Z AUTO 21008KT 10SM FEW019 23/21 A2987 RMK AO2 SLP115 T02330211
                 =
2018-08-14 20:43 METAR KBID 150043Z AUTO 21009KT 10SM SCT019 23/21 A2987 RMK AO2 =
2018-08-14 20:35 METAR KBID 150035Z AUTO 21009KT 10SM BKN019 24/21 A2987 RMK AO2 =
2018-08-14 19:56 METAR KBID 142356Z AUTO 22011KT 10SM CLR 24/22 A2986 RMK AO2 SLP115 T02390217
                 10278 20239 51004 =
2018-08-14 18:56 METAR KBID 142256Z AUTO 22010KT 10SM CLR 24/22 A2986 RMK AO2 SLP113 T02440217 =
2018-08-14 17:56 METAR KBID 142156Z AUTO 22010KT 10SM CLR 26/22 A2986 RMK AO2 SLP114 T02610217 =
2018-08-14 16:56 METAR KBID 142056Z AUTO 21010KT 10SM CLR 27/22 A2985 RMK AO2 SLP111 T02670222
                 56013 =
2018-08-14 15:56 METAR KBID 141956Z AUTO 20009KT 10SM CLR 27/22 A2986 RMK AO2 SLP114 T02720222 =
2018-08-14 14:56 METAR KBID 141856Z AUTO 19010KT 10SM SCT110 27/23 A2987 RMK AO2 SLP118 T02670228
                 =
2018-08-14 13:56 METAR KBID 141756Z AUTO 19011KT 10SM CLR 28/24 A2989 RMK AO2 SLP123 T02780239
                 10278 20244 58009 =
2018-08-14 12:56 METAR KBID 141656Z AUTO 19011KT 10SM CLR 28/24 A2990 RMK AO2 SLP128 T02780239 =
2018-08-14 11:56 METAR KBID 141556Z AUTO 19011KT 10SM SCT016 27/24 A2991 RMK AO2 SLP131 T02720244
                 =
2018-08-14 11:38 METAR KBID 141538Z AUTO 18007KT 10SM BKN016 26/24 A2992 RMK AO2 =
2018-08-14 10:56 METAR KBID 141456Z AUTO 19011G17KT 10SM FEW015 27/24 A2992 RMK AO2 SLP133
                 T02720239 55002 =
2018-08-14 09:56 METAR KBID 141356Z AUTO 19011KT 10SM CLR 27/24 A2991 RMK AO2 SLP130 T02670239 =
2018-08-14 08:56 METAR KBID 141256Z AUTO 19008KT 10SM CLR 26/24 A2991 RMK AO2 SLP131 T02610239 =
2018-08-14 07:56 METAR KBID 141156Z AUTO 18006KT 10SM FEW022 24/23 A2992 RMK AO2 SLP135 6////
                 7//// T02440233 10244 20228 51006 =
2018-08-14 07:39 METAR KBID 141139Z AUTO 19005KT 10SM SCT012 SCT018 24/23 A2993 RMK AO2 =

Support USWX by starting your Amazon purchase here.